METAR Data
IDs: Format: Raw Decoded Include TAF

Data at: 0802 UTC 07 Dec 2022

KOTH 070756Z AUTO 12008KT 10SM CLR 02/02 A3021 RMK AO2 SLP230 T00220022 401060017 FZRANO
KOTH 070656Z AUTO 13008KT 10SM CLR 02/02 A3021 RMK AO2 SLP231 T00220022 FZRANO
KOTH 070556Z AUTO 13005KT 10SM CLR 02/02 A3021 RMK AO2 SLP230 T00220022 10100 20022 53008 FZRANO
KOTH 070456Z 15005KT 10SM CLR 02/02 A3021 RMK AO2 SLP228 T00220022 FZRANO
KOTH 070356Z 14006KT 10SM CLR 03/03 A3019 RMK AO2 SLP224 T00280028
KOTH 070256Z 13006KT 10SM CLR 03/03 A3019 RMK AO2 SLP223 T00330033 51007
KOTH 070156Z 14006KT 10SM CLR 04/04 A3019 RMK AO2 SLP222 T00440039
KOTH 070056Z 00000KT 10SM CLR 08/06 A3018 RMK AO2 SLP218 T00780061
KOTH 062356Z 31005KT 10SM CLR 10/06 A3017 RMK AO2 SLP215 T01000061 10106 20050 55002
KOTH 062256Z 34004KT 10SM CLR 11/06 A3017 RMK AO2 SLP215 T01060061
KOTH 062156Z 05003KT 10SM CLR 11/06 A3017 RMK AO2 SLP216 T01060056
KOTH 062056Z 13005KT 10SM CLR 09/06 A3017 RMK AO2 SLP217 T00940061 58000
KOTH 061956Z 14006KT 10SM CLR 07/06 A3018 RMK AO2 SLP219 T00720061
KOTH 061856Z 15008KT 10SM CLR 06/05 A3018 RMK AO2 SLP220 T00610050
KOTH 061756Z 15007KT 10SM CLR 05/04 A3017 RMK AO2 SLP217 T00500044 10050 20022 51013
KOTH 061656Z 15008KT 10SM FEW004 04/03 A3016 RMK AO2 SLP214 T00390033
KOTH 061556Z 15007KT 10SM BKN043 03/03 A3015 RMK AO2 SLP209 T00330033
KOTH 061521Z 14006KT 10SM FEW004 BKN043 03/03 A3014 RMK AO2
KOTH 061456Z AUTO 15007KT 10SM CLR 03/03 A3014 RMK AO2 SLP204 T00280028 53011
KOTH 061356Z AUTO 13006KT 10SM BKN043 03/03 A3013 RMK AO2 SLP200 T00280028
KOTH 061256Z AUTO 15006KT 9SM CLR 03/03 A3011 RMK AO2 SLP196 T00280028
KOTH 061156Z AUTO 15007KT 7SM FEW004 03/03 A3010 RMK AO2 SLP193 70005 T00330028 10072 20033 58001
KOTH 061152Z AUTO 14006KT 7SM FEW004 03/03 A3010 RMK AO2
KOTH 061056Z AUTO 15007KT 8SM CLR 04/03 A3011 RMK AO2 SLP196 T00390033
KOTH 061009Z AUTO 13006KT 6SM BR SCT029 04/04 A3011 RMK AO2
KOTH 060956Z AUTO 13006KT 6SM BR BKN029 04/04 A3011 RMK AO2 SLP194 T00390039
KOTH 060856Z AUTO 14006KT 4SM BR CLR 04/04 A3010 RMK AO2 SLP191 T00440039 51008
KOTH 060756Z AUTO 14006KT 4SM BR CLR 05/05 A3009 RMK AO2 SLP189 T00500050 401110050
KOTH 060656Z AUTO 15005KT 4SM BR SCT048 06/06 A3008 RMK AO2 SLP185 T00560056
KOTH 060556Z AUTO 16005KT 5SM BR BKN042 OVC049 07/07 A3007 RMK AO2 SLP183 60004 T00720067 10100 20072 53006
KOTH 060520Z AUTO 16005KT 5SM BR FEW003 OVC038 07/07 A3007 RMK AO2
KOTH 060456Z AUTO 07003KT 9SM OVC036 08/07 A3006 RMK AO2 RAB05E43 SLP180 P0001 T00780072
KOTH 060437Z 12005KT 9SM -RA FEW023 BKN032 OVC040 08/07 A3006 RMK AO2 RAB05 P0001
KOTH 060356Z 19004KT 10SM BKN023 OVC040 08/07 A3006 RMK AO2 RAB0258E50 SLP177 P0003 T00780072
KOTH 060354Z 19005KT 10SM BKN023 OVC040 08/07 A3006 RMK AO2 RAB0258E50 P0003
KOTH 060318Z 00000KT 6SM -RA BR SCT016 OVC036 08/07 A3005 RMK AO2 RAB0258 P0002
KOTH 060256Z 00000KT 9SM OVC018 08/07 A3004 RMK AO2 SLP172 T00780072 53013
KOTH 060156Z 00000KT 5SM BR BKN020 BKN030 OVC049 08/07 A3003 RMK AO2 SLP167 T00830072
KOTH 060149Z 00000KT 3SM BR BKN020 OVC049 08/07 A3003 RMK AO2
KOTH 060056Z 00000KT 10SM OVC049 09/07 A3001 RMK AO2 SLP163 T00940067
KOTH 052356Z 01004KT 10SM OVC045 10/07 A3001 RMK AO2 SLP160 T01000067 10111 20072 53004
KOTH 052256Z 29005KT 10SM OVC048 11/06 A3000 RMK AO2 SLP157 T01060061
KOTH 052228Z 29004KT 10SM SCT028 OVC050 11/07 A2999 RMK AO2
KOTH 052203Z 29004KT 10SM BKN028 OVC033 11/07 A2999 RMK AO2
KOTH 052156Z 30003KT 10SM BKN031 OVC043 11/07 A2999 RMK AO2 SLP155 T01110072
KOTH 052117Z 12004KT 10SM FEW017 SCT029 OVC047 11/08 A2999 RMK AO2
KOTH 052105Z 12004KT 10SM FEW017 BKN029 BKN047 11/07 A2999 RMK AO2
KOTH 052056Z 00000KT 10SM FEW017 BKN031 10/07 A2999 RMK AO2 SLP155 T01000072 58002